sensor_id;sensor_type;location;lat;lon;timestamp;temperature;humidity
11647;DHT22;5880;52.342;9.662;2023-10-31T00:01:48;16.00;75.70
11647;DHT22;5880;52.342;9.662;2023-10-31T00:04:14;15.90;75.70
11647;DHT22;5880;52.342;9.662;2023-10-31T00:06:40;16.00;75.80
11647;DHT22;5880;52.342;9.662;2023-10-31T00:09:06;15.90;75.80
11647;DHT22;5880;52.342;9.662;2023-10-31T00:11:32;16.00;75.90
11647;DHT22;5880;52.342;9.662;2023-10-31T00:13:58;15.90;75.90
11647;DHT22;5880;52.342;9.662;2023-10-31T00:16:23;16.00;76.00
11647;DHT22;5880;52.342;9.662;2023-10-31T00:18:49;16.40;76.10
11647;DHT22;5880;52.342;9.662;2023-10-31T00:21:15;15.90;75.90
11647;DHT22;5880;52.342;9.662;2023-10-31T00:23:47;15.90;76.00
11647;DHT22;5880;52.342;9.662;2023-10-31T00:26:14;15.90;75.80
11647;DHT22;5880;52.342;9.662;2023-10-31T00:28:41;16.00;76.00
11647;DHT22;5880;52.342;9.662;2023-10-31T00:31:07;16.00;76.00
11647;DHT22;5880;52.342;9.662;2023-10-31T00:33:34;15.90;75.90
11647;DHT22;5880;52.342;9.662;2023-10-31T00:36:00;15.90;75.90
11647;DHT22;5880;52.342;9.662;2023-10-31T00:38:26;15.90;76.00
11647;DHT22;5880;52.342;9.662;2023-10-31T00:40:52;16.00;76.00
11647;DHT22;5880;52.342;9.662;2023-10-31T00:43:17;15.90;76.00
11647;DHT22;5880;52.342;9.662;2023-10-31T00:45:43;15.90;76.00
11647;DHT22;5880;52.342;9.662;2023-10-31T00:48:08;15.90;76.00
11647;DHT22;5880;52.342;9.662;2023-10-31T00:50:34;15.90;76.10
11647;DHT22;5880;52.342;9.662;2023-10-31T00:53:00;15.90;76.10
11647;DHT22;5880;52.342;9.662;2023-10-31T00:55:25;15.90;76.00
11647;DHT22;5880;52.342;9.662;2023-10-31T00:57:51;15.90;76.10
11647;DHT22;5880;52.342;9.662;2023-10-31T01:00:17;15.90;76.20
11647;DHT22;5880;52.342;9.662;2023-10-31T01:02:43;15.90;76.20
11647;DHT22;5880;52.342;9.662;2023-10-31T01:05:10;15.90;76.20
11647;DHT22;5880;52.342;9.662;2023-10-31T01:07:36;15.90;76.20
11647;DHT22;5880;52.342;9.662;2023-10-31T01:10:03;15.90;76.30
11647;DHT22;5880;52.342;9.662;2023-10-31T01:12:29;15.90;76.20
11647;DHT22;5880;52.342;9.662;2023-10-31T01:14:56;15.90;76.30
11647;DHT22;5880;52.342;9.662;2023-10-31T01:17:22;16.00;76.40
11647;DHT22;5880;52.342;9.662;2023-10-31T01:19:48;16.00;76.40
11647;DHT22;5880;52.342;9.662;2023-10-31T01:22:14;16.00;76.50
11647;DHT22;5880;52.342;9.662;2023-10-31T01:24:39;16.20;76.60
11647;DHT22;5880;52.342;9.662;2023-10-31T01:27:05;16.00;76.40
11647;DHT22;5880;52.342;9.662;2023-10-31T01:29:31;16.00;76.50
11647;DHT22;5880;52.342;9.662;2023-10-31T01:31:57;16.00;76.50
11647;DHT22;5880;52.342;9.662;2023-10-31T01:34:22;16.00;76.50
11647;DHT22;5880;52.342;9.662;2023-10-31T01:36:48;16.20;76.60
11647;DHT22;5880;52.342;9.662;2023-10-31T01:39:14;16.10;76.50
11647;DHT22;5880;52.342;9.662;2023-10-31T01:41:42;16.10;76.50
11647;DHT22;5880;52.342;9.662;2023-10-31T01:44:09;16.10;76.50
11647;DHT22;5880;52.342;9.662;2023-10-31T01:46:36;16.10;76.60
11647;DHT22;5880;52.342;9.662;2023-10-31T01:49:02;16.10;76.60
11647;DHT22;5880;52.342;9.662;2023-10-31T01:51:28;16.10;76.60
11647;DHT22;5880;52.342;9.662;2023-10-31T01:53:55;16.10;76.50
11647;DHT22;5880;52.342;9.662;2023-10-31T01:56:21;16.10;76.50
11647;DHT22;5880;52.342;9.662;2023-10-31T01:58:48;16.20;76.50
11647;DHT22;5880;52.342;9.662;2023-10-31T02:01:15;16.10;76.50
11647;DHT22;5880;52.342;9.662;2023-10-31T02:03:41;16.20;76.50
11647;DHT22;5880;52.342;9.662;2023-10-31T02:06:07;16.10;76.40
11647;DHT22;5880;52.342;9.662;2023-10-31T02:08:33;16.20;76.50
11647;DHT22;5880;52.342;9.662;2023-10-31T02:10:59;16.20;76.50
11647;DHT22;5880;52.342;9.662;2023-10-31T02:13:25;16.20;76.50
11647;DHT22;5880;52.342;9.662;2023-10-31T02:15:53;16.20;76.50
11647;DHT22;5880;52.342;9.662;2023-10-31T02:18:19;16.50;76.70
11647;DHT22;5880;52.342;9.662;2023-10-31T02:20:45;16.20;76.50
11647;DHT22;5880;52.342;9.662;2023-10-31T02:23:10;16.20;76.50
11647;DHT22;5880;52.342;9.662;2023-10-31T02:25:36;16.20;76.50
11647;DHT22;5880;52.342;9.662;2023-10-31T02:28:02;16.20;76.50
11647;DHT22;5880;52.342;9.662;2023-10-31T02:30:27;16.20;76.60
11647;DHT22;5880;52.342;9.662;2023-10-31T02:32:53;16.20;76.50
11647;DHT22;5880;52.342;9.662;2023-10-31T02:35:19;16.20;76.60
11647;DHT22;5880;52.342;9.662;2023-10-31T02:37:48;16.20;76.60
11647;DHT22;5880;52.342;9.662;2023-10-31T02:40:15;16.20;76.50
11647;DHT22;5880;52.342;9.662;2023-10-31T02:42:40;16.20;76.60
11647;DHT22;5880;52.342;9.662;2023-10-31T02:45:07;16.20;76.70
11647;DHT22;5880;52.342;9.662;2023-10-31T02:47:33;16.20;76.70
11647;DHT22;5880;52.342;9.662;2023-10-31T02:49:59;16.20;76.70
11647;DHT22;5880;52.342;9.662;2023-10-31T02:52:24;16.20;76.70
11647;DHT22;5880;52.342;9.662;2023-10-31T02:54:50;16.80;77.10
11647;DHT22;5880;52.342;9.662;2023-10-31T02:57:16;16.30;76.90
11647;DHT22;5880;52.342;9.662;2023-10-31T02:59:42;16.30;76.90
11647;DHT22;5880;52.342;9.662;2023-10-31T03:02:08;16.30;76.90
11647;DHT22;5880;52.342;9.662;2023-10-31T03:04:34;16.50;77.00
11647;DHT22;5880;52.342;9.662;2023-10-31T03:07:00;16.30;76.90
11647;DHT22;5880;52.342;9.662;2023-10-31T03:09:25;16.30;76.90
11647;DHT22;5880;52.342;9.662;2023-10-31T03:11:51;16.30;76.90
11647;DHT22;5880;52.342;9.662;2023-10-31T03:14:18;16.30;76.90
11647;DHT22;5880;52.342;9.662;2023-10-31T03:16:43;16.30;76.90
11647;DHT22;5880;52.342;9.662;2023-10-31T03:19:09;16.30;76.90
11647;DHT22;5880;52.342;9.662;2023-10-31T03:21:35;16.30;76.90
11647;DHT22;5880;52.342;9.662;2023-10-31T03:24:01;16.40;76.80
11647;DHT22;5880;52.342;9.662;2023-10-31T03:26:26;16.40;76.80
11647;DHT22;5880;52.342;9.662;2023-10-31T03:28:52;16.30;76.70
11647;DHT22;5880;52.342;9.662;2023-10-31T03:31:22;16.40;76.60
11647;DHT22;5880;52.342;9.662;2023-10-31T03:33:49;16.40;76.30
11647;DHT22;5880;52.342;9.662;2023-10-31T03:36:18;16.30;76.00
11647;DHT22;5880;52.342;9.662;2023-10-31T03:38:44;16.30;75.20
11647;DHT22;5880;52.342;9.662;2023-10-31T03:41:11;16.30;75.30
11647;DHT22;5880;52.342;9.662;2023-10-31T03:43:36;16.20;75.10
11647;DHT22;5880;52.342;9.662;2023-10-31T03:46:02;16.20;75.30
11647;DHT22;5880;52.342;9.662;2023-10-31T03:48:28;16.10;75.40
11647;DHT22;5880;52.342;9.662;2023-10-31T03:50:53;16.10;75.60
11647;DHT22;5880;52.342;9.662;2023-10-31T03:53:19;16.10;75.80
11647;DHT22;5880;52.342;9.662;2023-10-31T03:55:45;16.00;75.50
11647;DHT22;5880;52.342;9.662;2023-10-31T03:58:11;16.00;75.40
11647;DHT22;5880;52.342;9.662;2023-10-31T04:00:38;16.00;75.40
11647;DHT22;5880;52.342;9.662;2023-10-31T04:03:04;15.90;75.20
11647;DHT22;5880;52.342;9.662;2023-10-31T04:05:30;16.00;75.20
11647;DHT22;5880;52.342;9.662;2023-10-31T04:07:55;15.80;75.00
11647;DHT22;5880;52.342;9.662;2023-10-31T04:10:21;15.80;75.00
11647;DHT22;5880;52.342;9.662;2023-10-31T04:12:48;15.80;74.80
11647;DHT22;5880;52.342;9.662;2023-10-31T04:15:13;15.70;74.80
11647;DHT22;5880;52.342;9.662;2023-10-31T04:17:39;15.70;74.80
11647;DHT22;5880;52.342;9.662;2023-10-31T04:20:06;15.60;74.80
11647;DHT22;5880;52.342;9.662;2023-10-31T04:22:32;15.60;74.80
11647;DHT22;5880;52.342;9.662;2023-10-31T04:24:58;15.50;74.70
11647;DHT22;5880;52.342;9.662;2023-10-31T04:27:23;15.50;74.70
11647;DHT22;5880;52.342;9.662;2023-10-31T04:29:49;15.50;74.80
11647;DHT22;5880;52.342;9.662;2023-10-31T04:32:15;15.40;74.70
11647;DHT22;5880;52.342;9.662;2023-10-31T04:34:40;15.40;74.80
11647;DHT22;5880;52.342;9.662;2023-10-31T04:37:06;15.30;74.80
11647;DHT22;5880;52.342;9.662;2023-10-31T04:39:32;15.30;74.70
11647;DHT22;5880;52.342;9.662;2023-10-31T04:41:57;15.30;74.80
11647;DHT22;5880;52.342;9.662;2023-10-31T04:44:23;15.30;74.90
11647;DHT22;5880;52.342;9.662;2023-10-31T04:46:49;15.30;74.90
11647;DHT22;5880;52.342;9.662;2023-10-31T04:49:15;15.20;74.80
11647;DHT22;5880;52.342;9.662;2023-10-31T04:51:41;15.20;74.80
11647;DHT22;5880;52.342;9.662;2023-10-31T04:54:07;15.10;74.80
11647;DHT22;5880;52.342;9.662;2023-10-31T04:56:33;15.10;74.80
11647;DHT22;5880;52.342;9.662;2023-10-31T04:58:59;15.10;74.60
11647;DHT22;5880;52.342;9.662;2023-10-31T05:01:25;15.10;74.60
11647;DHT22;5880;52.342;9.662;2023-10-31T05:03:51;15.10;74.50
11647;DHT22;5880;52.342;9.662;2023-10-31T05:06:21;15.00;74.40
11647;DHT22;5880;52.342;9.662;2023-10-31T05:08:48;15.00;74.20
11647;DHT22;5880;52.342;9.662;2023-10-31T05:11:18;15.00;74.60
11647;DHT22;5880;52.342;9.662;2023-10-31T05:13:45;14.90;74.30
11647;DHT22;5880;52.342;9.662;2023-10-31T05:16:11;14.90;74.50
11647;DHT22;5880;52.342;9.662;2023-10-31T05:18:39;14.90;74.50
11647;DHT22;5880;52.342;9.662;2023-10-31T05:21:05;14.80;74.50
11647;DHT22;5880;52.342;9.662;2023-10-31T05:23:31;14.80;74.40
11647;DHT22;5880;52.342;9.662;2023-10-31T05:25:57;14.80;74.40
11647;DHT22;5880;52.342;9.662;2023-10-31T05:28:23;14.80;74.40
11647;DHT22;5880;52.342;9.662;2023-10-31T05:30:51;14.80;74.40
11647;DHT22;5880;52.342;9.662;2023-10-31T05:33:17;14.80;74.40
11647;DHT22;5880;52.342;9.662;2023-10-31T05:35:42;14.80;74.40
11647;DHT22;5880;52.342;9.662;2023-10-31T05:38:08;14.80;74.40
11647;DHT22;5880;52.342;9.662;2023-10-31T05:40:34;14.70;74.30
11647;DHT22;5880;52.342;9.662;2023-10-31T05:43:03;14.70;74.40
11647;DHT22;5880;52.342;9.662;2023-10-31T05:45:29;14.70;74.30
11647;DHT22;5880;52.342;9.662;2023-10-31T05:47:55;14.70;74.40
11647;DHT22;5880;52.342;9.662;2023-10-31T05:50:21;14.70;74.40
11647;DHT22;5880;52.342;9.662;2023-10-31T05:52:47;14.70;74.30
11647;DHT22;5880;52.342;9.662;2023-10-31T05:55:13;14.70;74.40
11647;DHT22;5880;52.342;9.662;2023-10-31T05:57:38;14.70;74.40
11647;DHT22;5880;52.342;9.662;2023-10-31T06:00:05;14.70;74.20
11647;DHT22;5880;52.342;9.662;2023-10-31T06:02:32;14.70;74.30
11647;DHT22;5880;52.342;9.662;2023-10-31T06:05:00;14.70;74.20
11647;DHT22;5880;52.342;9.662;2023-10-31T06:07:26;14.60;74.20
11647;DHT22;5880;52.342;9.662;2023-10-31T06:09:52;14.70;74.10
11647;DHT22;5880;52.342;9.662;2023-10-31T06:12:18;14.80;74.00
11647;DHT22;5880;52.342;9.662;2023-10-31T06:14:43;14.70;73.80
11647;DHT22;5880;52.342;9.662;2023-10-31T06:17:09;14.60;73.70
11647;DHT22;5880;52.342;9.662;2023-10-31T06:19:36;14.60;73.70
11647;DHT22;5880;52.342;9.662;2023-10-31T06:22:02;14.60;73.70
11647;DHT22;5880;52.342;9.662;2023-10-31T06:24:28;14.50;73.90
11647;DHT22;5880;52.342;9.662;2023-10-31T06:26:54;14.60;74.00
11647;DHT22;5880;52.342;9.662;2023-10-31T06:29:20;14.50;74.10
11647;DHT22;5880;52.342;9.662;2023-10-31T06:31:45;14.40;74.10
11647;DHT22;5880;52.342;9.662;2023-10-31T06:34:11;14.50;74.20
11647;DHT22;5880;52.342;9.662;2023-10-31T06:36:37;14.40;74.10
11647;DHT22;5880;52.342;9.662;2023-10-31T06:39:02;14.40;74.10
11647;DHT22;5880;52.342;9.662;2023-10-31T06:41:28;14.40;74.10
11647;DHT22;5880;52.342;9.662;2023-10-31T06:43:54;14.40;74.20
11647;DHT22;5880;52.342;9.662;2023-10-31T06:46:19;14.40;74.40
11647;DHT22;5880;52.342;9.662;2023-10-31T06:48:45;14.40;74.40
11647;DHT22;5880;52.342;9.662;2023-10-31T06:51:11;14.40;74.50
11647;DHT22;5880;52.342;9.662;2023-10-31T06:53:36;14.40;74.40
11647;DHT22;5880;52.342;9.662;2023-10-31T06:56:02;14.40;74.40
11647;DHT22;5880;52.342;9.662;2023-10-31T06:58:28;14.50;74.40
11647;DHT22;5880;52.342;9.662;2023-10-31T07:00:54;14.50;74.40
11647;DHT22;5880;52.342;9.662;2023-10-31T07:03:20;14.40;74.30
11647;DHT22;5880;52.342;9.662;2023-10-31T07:05:46;14.40;74.20
11647;DHT22;5880;52.342;9.662;2023-10-31T07:08:11;14.50;74.30
11647;DHT22;5880;52.342;9.662;2023-10-31T07:10:37;14.50;74.30
11647;DHT22;5880;52.342;9.662;2023-10-31T07:13:03;14.50;74.30
11647;DHT22;5880;52.342;9.662;2023-10-31T07:15:28;14.50;74.20
11647;DHT22;5880;52.342;9.662;2023-10-31T07:17:54;14.50;74.20
11647;DHT22;5880;52.342;9.662;2023-10-31T07:20:20;14.50;74.10
11647;DHT22;5880;52.342;9.662;2023-10-31T07:22:45;14.50;74.20
11647;DHT22;5880;52.342;9.662;2023-10-31T07:25:11;14.50;75.00
11647;DHT22;5880;52.342;9.662;2023-10-31T07:27:37;14.50;74.20
11647;DHT22;5880;52.342;9.662;2023-10-31T07:30:03;14.50;74.30
11647;DHT22;5880;52.342;9.662;2023-10-31T07:32:31;14.40;74.10
11647;DHT22;5880;52.342;9.662;2023-10-31T07:34:57;14.50;74.40
11647;DHT22;5880;52.342;9.662;2023-10-31T07:37:23;14.50;74.50
11647;DHT22;5880;52.342;9.662;2023-10-31T07:39:49;14.50;74.60
11647;DHT22;5880;52.342;9.662;2023-10-31T07:42:16;14.50;74.50
11647;DHT22;5880;52.342;9.662;2023-10-31T07:44:42;14.50;74.60
11647;DHT22;5880;52.342;9.662;2023-10-31T07:47:08;14.50;74.70
11647;DHT22;5880;52.342;9.662;2023-10-31T07:49:33;14.50;74.70
11647;DHT22;5880;52.342;9.662;2023-10-31T07:51:59;14.50;74.60
11647;DHT22;5880;52.342;9.662;2023-10-31T07:54:25;14.60;74.70
11647;DHT22;5880;52.342;9.662;2023-10-31T07:56:50;14.60;74.70
11647;DHT22;5880;52.342;9.662;2023-10-31T07:59:16;14.60;74.70
11647;DHT22;5880;52.342;9.662;2023-10-31T08:01:42;14.60;74.60
11647;DHT22;5880;52.342;9.662;2023-10-31T08:04:07;14.70;74.70
11647;DHT22;5880;52.342;9.662;2023-10-31T08:06:33;14.60;74.60
11647;DHT22;5880;52.342;9.662;2023-10-31T08:08:59;14.60;74.60
11647;DHT22;5880;52.342;9.662;2023-10-31T08:11:25;14.60;74.60
11647;DHT22;5880;52.342;9.662;2023-10-31T08:13:52;14.70;74.70
11647;DHT22;5880;52.342;9.662;2023-10-31T08:16:19;14.70;74.70
11647;DHT22;5880;52.342;9.662;2023-10-31T08:18:45;14.70;74.80
11647;DHT22;5880;52.342;9.662;2023-10-31T08:21:12;14.70;74.90
11647;DHT22;5880;52.342;9.662;2023-10-31T08:23:38;14.70;74.90
11647;DHT22;5880;52.342;9.662;2023-10-31T08:26:04;14.80;74.80
11647;DHT22;5880;52.342;9.662;2023-10-31T08:28:29;14.70;74.90
11647;DHT22;5880;52.342;9.662;2023-10-31T08:30:56;14.80;75.00
11647;DHT22;5880;52.342;9.662;2023-10-31T08:33:23;14.70;75.00
11647;DHT22;5880;52.342;9.662;2023-10-31T08:35:49;14.80;75.10
11647;DHT22;5880;52.342;9.662;2023-10-31T08:38:16;14.80;75.00
11647;DHT22;5880;52.342;9.662;2023-10-31T08:40:43;14.90;75.20
11647;DHT22;5880;52.342;9.662;2023-10-31T08:43:08;14.90;75.00
11647;DHT22;5880;52.342;9.662;2023-10-31T08:45:34;15.10;74.90
11647;DHT22;5880;52.342;9.662;2023-10-31T08:48:00;15.00;74.80
11647;DHT22;5880;52.342;9.662;2023-10-31T08:50:26;15.00;74.70
11647;DHT22;5880;52.342;9.662;2023-10-31T08:52:52;15.00;74.60
11647;DHT22;5880;52.342;9.662;2023-10-31T08:55:18;15.00;74.60
11647;DHT22;5880;52.342;9.662;2023-10-31T08:57:44;15.10;74.80
11647;DHT22;5880;52.342;9.662;2023-10-31T09:00:10;15.10;75.00
11647;DHT22;5880;52.342;9.662;2023-10-31T09:02:36;15.10;74.80
11647;DHT22;5880;52.342;9.662;2023-10-31T09:05:01;15.10;74.70
11647;DHT22;5880;52.342;9.662;2023-10-31T09:07:27;15.20;74.60
11647;DHT22;5880;52.342;9.662;2023-10-31T09:09:53;15.20;74.70
11647;DHT22;5880;52.342;9.662;2023-10-31T09:12:18;15.20;74.60
11647;DHT22;5880;52.342;9.662;2023-10-31T09:14:44;15.20;74.50
11647;DHT22;5880;52.342;9.662;2023-10-31T09:17:10;15.20;74.50
11647;DHT22;5880;52.342;9.662;2023-10-31T09:19:36;15.30;74.80
11647;DHT22;5880;52.342;9.662;2023-10-31T09:22:02;15.30;75.40
11647;DHT22;5880;52.342;9.662;2023-10-31T09:24:27;15.40;75.40
11647;DHT22;5880;52.342;9.662;2023-10-31T09:26:54;15.40;75.10
11647;DHT22;5880;52.342;9.662;2023-10-31T09:29:20;15.50;75.00
11647;DHT22;5880;52.342;9.662;2023-10-31T09:31:46;15.60;74.50
11647;DHT22;5880;52.342;9.662;2023-10-31T09:34:12;15.60;74.10
11647;DHT22;5880;52.342;9.662;2023-10-31T09:36:39;15.60;73.90
11647;DHT22;5880;52.342;9.662;2023-10-31T09:39:05;15.50;73.70
11647;DHT22;5880;52.342;9.662;2023-10-31T09:41:31;15.50;73.50
11647;DHT22;5880;52.342;9.662;2023-10-31T09:44:00;15.50;73.40
11647;DHT22;5880;52.342;9.662;2023-10-31T09:46:28;15.50;73.30
11647;DHT22;5880;52.342;9.662;2023-10-31T09:48:54;15.40;73.30
11647;DHT22;5880;52.342;9.662;2023-10-31T09:51:21;15.40;73.30
11647;DHT22;5880;52.342;9.662;2023-10-31T09:53:47;15.40;73.30
11647;DHT22;5880;52.342;9.662;2023-10-31T09:56:15;15.40;73.30
11647;DHT22;5880;52.342;9.662;2023-10-31T09:58:42;15.40;73.40
11647;DHT22;5880;52.342;9.662;2023-10-31T10:01:08;15.40;73.40
11647;DHT22;5880;52.342;9.662;2023-10-31T10:03:34;15.30;73.40
11647;DHT22;5880;52.342;9.662;2023-10-31T10:06:01;15.40;73.50
11647;DHT22;5880;52.342;9.662;2023-10-31T10:08:27;15.30;73.50
11647;DHT22;5880;52.342;9.662;2023-10-31T10:10:54;15.40;73.40
11647;DHT22;5880;52.342;9.662;2023-10-31T10:13:20;15.30;73.30
11647;DHT22;5880;52.342;9.662;2023-10-31T10:15:47;15.30;73.30
11647;DHT22;5880;52.342;9.662;2023-10-31T10:18:33;15.30;73.30
11647;DHT22;5880;52.342;9.662;2023-10-31T10:21:04;15.30;72.20
11647;DHT22;5880;52.342;9.662;2023-10-31T10:23:32;15.40;73.30
11647;DHT22;5880;52.342;9.662;2023-10-31T10:25:59;15.40;73.40
11647;DHT22;5880;52.342;9.662;2023-10-31T10:28:26;15.80;74.20
11647;DHT22;5880;52.342;9.662;2023-10-31T10:30:54;15.40;73.30
11647;DHT22;5880;52.342;9.662;2023-10-31T10:33:21;15.40;73.30
11647;DHT22;5880;52.342;9.662;2023-10-31T10:35:47;15.40;73.70
11647;DHT22;5880;52.342;9.662;2023-10-31T10:38:15;15.40;73.90
11647;DHT22;5880;52.342;9.662;2023-10-31T10:40:47;15.40;73.90
11647;DHT22;5880;52.342;9.662;2023-10-31T10:43:25;15.50;73.80
11647;DHT22;5880;52.342;9.662;2023-10-31T10:45:56;15.50;73.40
11647;DHT22;5880;52.342;9.662;2023-10-31T10:48:24;15.60;74.30
11647;DHT22;5880;52.342;9.662;2023-10-31T10:51:07;15.60;73.80
11647;DHT22;5880;52.342;9.662;2023-10-31T10:54:15;15.60;72.70
11647;DHT22;5880;52.342;9.662;2023-10-31T10:56:53;15.60;71.80
11647;DHT22;5880;52.342;9.662;2023-10-31T11:02:03;15.60;72.30
11647;DHT22;5880;52.342;9.662;2023-10-31T11:04:32;15.60;73.40
11647;DHT22;5880;52.342;9.662;2023-10-31T11:07:00;15.60;73.60
11647;DHT22;5880;52.342;9.662;2023-10-31T11:09:25;15.60;73.70
11647;DHT22;5880;52.342;9.662;2023-10-31T11:11:52;15.60;73.80
11647;DHT22;5880;52.342;9.662;2023-10-31T11:14:19;15.70;74.00
11647;DHT22;5880;52.342;9.662;2023-10-31T11:16:51;15.70;74.00
11647;DHT22;5880;52.342;9.662;2023-10-31T11:19:18;15.70;73.70
11647;DHT22;5880;52.342;9.662;2023-10-31T11:22:05;15.70;73.70
11647;DHT22;5880;52.342;9.662;2023-10-31T11:24:33;15.80;72.10
11647;DHT22;5880;52.342;9.662;2023-10-31T11:27:01;15.70;73.50
11647;DHT22;5880;52.342;9.662;2023-10-31T11:29:28;15.70;73.40
11647;DHT22;5880;52.342;9.662;2023-10-31T11:31:55;15.70;73.50
11647;DHT22;5880;52.342;9.662;2023-10-31T11:34:29;15.70;73.50
11647;DHT22;5880;52.342;9.662;2023-10-31T11:37:18;15.70;73.10
11647;DHT22;5880;52.342;9.662;2023-10-31T11:40:21;15.70;72.00
11647;DHT22;5880;52.342;9.662;2023-10-31T11:42:49;15.70;72.00
11647;DHT22;5880;52.342;9.662;2023-10-31T11:45:36;15.70;73.50
11647;DHT22;5880;52.342;9.662;2023-10-31T11:48:10;15.70;72.70
11647;DHT22;5880;52.342;9.662;2023-10-31T11:50:37;15.60;73.50
11647;DHT22;5880;52.342;9.662;2023-10-31T11:53:10;15.60;73.40
11647;DHT22;5880;52.342;9.662;2023-10-31T11:55:43;15.60;73.00
11647;DHT22;5880;52.342;9.662;2023-10-31T12:00:42;15.70;73.50
11647;DHT22;5880;52.342;9.662;2023-10-31T12:03:08;16.10;73.80
11647;DHT22;5880;52.342;9.662;2023-10-31T12:05:33;15.70;73.70
11647;DHT22;5880;52.342;9.662;2023-10-31T12:08:00;15.70;73.80
11647;DHT22;5880;52.342;9.662;2023-10-31T12:10:28;15.70;73.70
11647;DHT22;5880;52.342;9.662;2023-10-31T12:12:58;15.80;73.80
11647;DHT22;5880;52.342;9.662;2023-10-31T12:15:24;15.70;73.70
11647;DHT22;5880;52.342;9.662;2023-10-31T12:17:50;15.70;73.80
11647;DHT22;5880;52.342;9.662;2023-10-31T12:20:16;15.70;73.80
11647;DHT22;5880;52.342;9.662;2023-10-31T12:22:43;15.80;73.70
11647;DHT22;5880;52.342;9.662;2023-10-31T12:25:10;15.70;73.60
11647;DHT22;5880;52.342;9.662;2023-10-31T12:27:50;15.80;73.50
11647;DHT22;5880;52.342;9.662;2023-10-31T12:30:17;15.80;72.60
11647;DHT22;5880;52.342;9.662;2023-10-31T12:32:52;15.80;73.50
11647;DHT22;5880;52.342;9.662;2023-10-31T12:35:23;15.80;73.30
11647;DHT22;5880;52.342;9.662;2023-10-31T12:37:50;15.80;73.30
11647;DHT22;5880;52.342;9.662;2023-10-31T12:40:20;15.80;73.40
11647;DHT22;5880;52.342;9.662;2023-10-31T12:42:48;15.80;73.00
11647;DHT22;5880;52.342;9.662;2023-10-31T12:45:15;15.90;73.60
11647;DHT22;5880;52.342;9.662;2023-10-31T12:47:42;15.80;74.30
11647;DHT22;5880;52.342;9.662;2023-10-31T12:50:13;15.80;73.50
11647;DHT22;5880;52.342;9.662;2023-10-31T12:52:46;15.80;73.00
11647;DHT22;5880;52.342;9.662;2023-10-31T12:55:17;15.90;73.10
11647;DHT22;5880;52.342;9.662;2023-10-31T12:57:45;15.90;73.40
11647;DHT22;5880;52.342;9.662;2023-10-31T13:00:12;15.90;73.40
11647;DHT22;5880;52.342;9.662;2023-10-31T13:02:40;15.80;73.40
11647;DHT22;5880;52.342;9.662;2023-10-31T13:07:37;15.80;72.90
11647;DHT22;5880;52.342;9.662;2023-10-31T13:10:04;15.80;73.30
11647;DHT22;5880;52.342;9.662;2023-10-31T13:12:31;15.90;73.30
11647;DHT22;5880;52.342;9.662;2023-10-31T13:14:57;15.80;73.30
11647;DHT22;5880;52.342;9.662;2023-10-31T13:17:23;15.90;73.40
11647;DHT22;5880;52.342;9.662;2023-10-31T13:19:48;16.00;73.30
11647;DHT22;5880;52.342;9.662;2023-10-31T13:22:14;15.80;73.30
11647;DHT22;5880;52.342;9.662;2023-10-31T13:24:40;15.90;73.60
11647;DHT22;5880;52.342;9.662;2023-10-31T13:27:06;15.90;73.60
11647;DHT22;5880;52.342;9.662;2023-10-31T13:29:33;16.10;73.70
11647;DHT22;5880;52.342;9.662;2023-10-31T13:31:58;15.90;73.70
11647;DHT22;5880;52.342;9.662;2023-10-31T13:34:24;16.00;73.60
11647;DHT22;5880;52.342;9.662;2023-10-31T13:36:50;16.00;73.60
11647;DHT22;5880;52.342;9.662;2023-10-31T13:39:17;16.00;73.60
11647;DHT22;5880;52.342;9.662;2023-10-31T13:41:43;16.00;73.50
11647;DHT22;5880;52.342;9.662;2023-10-31T13:44:09;16.00;73.40
11647;DHT22;5880;52.342;9.662;2023-10-31T13:46:34;16.10;73.40
11647;DHT22;5880;52.342;9.662;2023-10-31T13:49:00;16.10;73.30
11647;DHT22;5880;52.342;9.662;2023-10-31T13:51:26;16.10;73.40
11647;DHT22;5880;52.342;9.662;2023-10-31T13:53:51;16.10;73.20
11647;DHT22;5880;52.342;9.662;2023-10-31T13:56:17;16.60;73.30
11647;DHT22;5880;52.342;9.662;2023-10-31T13:58:43;16.10;73.10
11647;DHT22;5880;52.342;9.662;2023-10-31T14:01:08;16.10;73.10
11647;DHT22;5880;52.342;9.662;2023-10-31T14:03:34;16.10;73.00
11647;DHT22;5880;52.342;9.662;2023-10-31T14:06:00;16.00;73.00
11647;DHT22;5880;52.342;9.662;2023-10-31T14:08:26;16.00;73.00
11647;DHT22;5880;52.342;9.662;2023-10-31T14:10:52;16.20;73.10
11647;DHT22;5880;52.342;9.662;2023-10-31T14:13:17;16.00;72.90
11647;DHT22;5880;52.342;9.662;2023-10-31T14:15:45;16.00;72.90
11647;DHT22;5880;52.342;9.662;2023-10-31T14:18:12;16.60;73.20
11647;DHT22;5880;52.342;9.662;2023-10-31T14:20:38;16.00;72.80
11647;DHT22;5880;52.342;9.662;2023-10-31T14:23:05;16.00;72.70
11647;DHT22;5880;52.342;9.662;2023-10-31T14:25:31;15.90;72.70
11647;DHT22;5880;52.342;9.662;2023-10-31T14:27:57;15.90;72.80
11647;DHT22;5880;52.342;9.662;2023-10-31T14:30:22;15.90;72.90
11647;DHT22;5880;52.342;9.662;2023-10-31T14:32:48;15.90;72.80
11647;DHT22;5880;52.342;9.662;2023-10-31T14:35:13;15.80;72.70
11647;DHT22;5880;52.342;9.662;2023-10-31T14:37:40;15.70;72.80
11647;DHT22;5880;52.342;9.662;2023-10-31T14:40:07;15.90;73.00
11647;DHT22;5880;52.342;9.662;2023-10-31T14:42:33;15.60;73.00
11647;DHT22;5880;52.342;9.662;2023-10-31T14:45:00;15.50;73.30
11647;DHT22;5880;52.342;9.662;2023-10-31T14:47:26;15.50;73.40
11647;DHT22;5880;52.342;9.662;2023-10-31T14:49:51;15.50;73.50
11647;DHT22;5880;52.342;9.662;2023-10-31T14:52:17;15.50;73.70
11647;DHT22;5880;52.342;9.662;2023-10-31T14:54:43;15.40;73.70
11647;DHT22;5880;52.342;9.662;2023-10-31T14:57:08;15.40;73.90
11647;DHT22;5880;52.342;9.662;2023-10-31T14:59:34;15.40;73.90
11647;DHT22;5880;52.342;9.662;2023-10-31T15:02:00;15.40;73.90
11647;DHT22;5880;52.342;9.662;2023-10-31T15:04:25;15.40;73.90
11647;DHT22;5880;52.342;9.662;2023-10-31T15:06:51;15.40;73.90
11647;DHT22;5880;52.342;9.662;2023-10-31T15:09:17;15.30;73.90
11647;DHT22;5880;52.342;9.662;2023-10-31T15:11:44;15.30;73.90
11647;DHT22;5880;52.342;9.662;2023-10-31T15:14:10;15.20;73.80
11647;DHT22;5880;52.342;9.662;2023-10-31T15:16:36;15.20;73.90
11647;DHT22;5880;52.342;9.662;2023-10-31T15:19:01;15.20;74.00
11647;DHT22;5880;52.342;9.662;2023-10-31T15:21:27;15.10;74.00
11647;DHT22;5880;52.342;9.662;2023-10-31T15:23:53;15.10;74.00
11647;DHT22;5880;52.342;9.662;2023-10-31T15:26:19;15.10;74.10
11647;DHT22;5880;52.342;9.662;2023-10-31T15:28:45;15.10;74.20
11647;DHT22;5880;52.342;9.662;2023-10-31T15:31:11;15.00;74.10
11647;DHT22;5880;52.342;9.662;2023-10-31T15:33:36;15.00;74.00
11647;DHT22;5880;52.342;9.662;2023-10-31T15:36:04;14.90;74.00
11647;DHT22;5880;52.342;9.662;2023-10-31T15:38:30;14.90;74.10
11647;DHT22;5880;52.342;9.662;2023-10-31T15:40:56;14.80;74.00
11647;DHT22;5880;52.342;9.662;2023-10-31T15:43:22;14.80;74.10
11647;DHT22;5880;52.342;9.662;2023-10-31T15:45:47;14.80;74.20
11647;DHT22;5880;52.342;9.662;2023-10-31T15:48:13;15.00;74.50
11647;DHT22;5880;52.342;9.662;2023-10-31T15:50:39;14.70;74.50